Time;durP1;ratioP1;P1;durP2;ratioP2;P2;SDS_P1;SDS_P2;PMS_P1;PMS_P2;Temp;Humidity;BMP_temperature;BMP_pressure;BME280_temperature;BME280_humidity;BME280_pressure;Samples;Min_cycle;Max_cycle;Signal;HPM_P1;HPM_P2
2021/12/28 00:00:20;;;;;;;929.67;866.03;;;;;;;-0.84;59.68;100078.81;680862;29;21280;-69
2021/12/28 00:00:42;;;;;;;946.10;881.15;;;;;;;-0.85;59.78;100079.78;679929;29;45209;-72
2021/12/28 00:01:04;;;;;;;935.92;871.33;;;;;;;-0.84;59.78;100078.81;679940;29;23471;-69
2021/12/28 00:01:26;;;;;;;953.65;888.55;;;;;;;-0.83;59.66;100078.69;679050;29;69542;-72
2021/12/28 00:01:48;;;;;;;947.17;882.33;;;;;;;-0.80;59.60;100072.28;679862;29;46353;-72
2021/12/28 00:02:09;;;;;;;952.95;886.97;;;;;;;-0.79;59.64;100066.88;680374;29;45310;-71
2021/12/28 00:02:31;;;;;;;969.03;902.65;;;;;;;-0.77;59.78;100070.25;680785;29;21559;-69
2021/12/28 00:02:54;;;;;;;954.08;888.65;;;;;;;-0.78;59.80;100068.56;680174;29;21380;-71
2021/12/28 00:03:15;;;;;;;954.88;889.85;;;;;;;-0.77;59.62;100072.91;677693;29;69235;-69
2021/12/28 00:03:37;;;;;;;948.75;883.53;;;;;;;-0.74;59.56;100074.47;680015;29;46263;-70
2021/12/28 00:03:58;;;;;;;956.17;890.58;;;;;;;-0.76;59.55;100068.44;678710;28;45474;-71
2021/12/28 00:04:20;;;;;;;966.50;900.20;;;;;;;-0.76;59.70;100071.94;678000;29;22025;-69
2021/12/28 00:04:41;;;;;;;933.15;868.13;;;;;;;-0.76;59.46;100073.75;676214;29;46753;-69
2021/12/28 00:05:05;;;;;;;931.05;865.97;;;;;;;-0.78;59.32;100063.25;677697;29;22183;-69
2021/12/28 00:05:27;;;;;;;944.53;878.88;;;;;;;-0.76;59.44;100079.06;675663;29;92125;-70
2021/12/28 00:05:48;;;;;;;956.38;890.47;;;;;;;-0.76;59.56;100071.09;677982;29;22607;-71
2021/12/28 00:06:10;;;;;;;948.10;882.20;;;;;;;-0.78;59.46;100067.72;676813;29;46188;-69
2021/12/28 00:06:31;;;;;;;937.33;871.50;;;;;;;-0.79;59.45;100071.34;679888;29;44147;-69
2021/12/28 00:06:52;;;;;;;918.28;853.30;;;;;;;-0.78;59.36;100065.91;680599;29;19491;-68
2021/12/28 00:07:14;;;;;;;918.03;854.10;;;;;;;-0.82;59.31;100067.09;680376;29;21624;-69
2021/12/28 00:07:36;;;;;;;927.35;863.63;;;;;;;-0.82;59.42;100074.22;679517;29;46338;-68
2021/12/28 00:07:57;;;;;;;939.05;874.15;;;;;;;-0.83;59.43;100077.84;679071;29;45255;-68
2021/12/28 00:08:19;;;;;;;932.28;867.50;;;;;;;-0.82;59.42;100074.22;680512;29;21513;-69
2021/12/28 00:08:42;;;;;;;925.80;861.33;;;;;;;-0.81;59.43;100078.56;680141;29;44272;-70
2021/12/28 00:09:03;;;;;;;927.28;862.47;;;;;;;-0.83;59.55;100080.47;676932;29;69402;-69
2021/12/28 00:09:24;;;;;;;931.05;866.13;;;;;;;-0.85;59.67;100074.47;680075;29;22449;-70
2021/12/28 00:09:45;;;;;;;935.95;870.47;;;;;;;-0.84;59.71;100081.47;680281;29;22418;-69
2021/12/28 00:10:09;;;;;;;946.13;880.00;;;;;;;-0.85;59.67;100077.13;680517;29;23846;-70
2021/12/28 00:10:31;;;;;;;957.63;890.83;;;;;;;-0.89;59.74;100075.66;678406;29;90693;-72
2021/12/28 00:10:52;;;;;;;960.00;892.92;;;;;;;-0.92;59.69;100074.94;680098;28;46636;-69
2021/12/28 00:11:14;;;;;;;972.65;905.00;;;;;;;-0.94;59.69;100076.00;680324;29;23498;-69
2021/12/28 00:11:36;;;;;;;985.33;917.10;;;;;;;-0.95;59.83;100085.78;679923;28;44348;-69
2021/12/28 00:11:57;;;;;;;980.15;912.30;;;;;;;-0.92;59.83;100072.28;679620;29;45193;-71
2021/12/28 00:12:18;;;;;;;962.78;896.70;;;;;;;-0.89;59.66;100083.59;680272;29;21518;-72
2021/12/28 00:12:40;;;;;;;997.47;928.90;;;;;;;-0.92;59.71;100088.19;680547;29;22311;-69
2021/12/28 00:13:02;;;;;;;965.03;896.78;;;;;;;-0.91;59.86;100086.38;679200;29;45273;-69
2021/12/28 00:13:23;;;;;;;944.53;877.78;;;;;;;-0.95;59.96;100084.94;679195;29;46211;-69
2021/12/28 00:13:45;;;;;;;913.77;853.40;;;;;;;-0.94;59.92;100083.97;678090;29;23587;-70
2021/12/28 00:14:07;;;;;;;752.53;710.20;;;;;;;-0.92;59.85;100087.38;676846;28;46425;-72
2021/12/28 00:14:35;;;;;;;749.78;707.65;;;;;;;-0.92;59.95;100077.59;679853;29;46332;-71
2021/12/28 00:15:04;;;;;;;947.08;880.35;;;;;;;-0.86;59.89;100086.03;676748;29;136556;-69
2021/12/28 00:15:37;;;;;;;946.65;879.88;;;;;;;-0.87;59.77;100079.88;676823;29;137894;-69
2021/12/28 00:16:24;;;;;;;850.20;791.50;;;;;;;-0.91;59.65;100081.94;675668;29;158962;-70
2021/12/28 00:18:04;;;;;;;949.92;882.47;;;;;;;-0.97;59.89;100073.59;673565;29;135788;-68
2021/12/28 00:18:26;;;;;;;952.70;886.03;;;;;;;-1.01;60.00;100078.31;677734;29;23471;-71
2021/12/28 00:18:47;;;;;;;944.63;879.13;;;;;;;-1.03;60.04;100077.59;676691;29;69410;-69
2021/12/28 00:19:09;;;;;;;937.65;872.13;;;;;;;-1.04;60.11;100075.06;677093;29;22394;-71
2021/12/28 00:19:30;;;;;;;945.92;880.47;;;;;;;-1.05;60.14;100068.91;677849;29;23366;-69
2021/12/28 00:19:51;;;;;;;951.47;885.17;;;;;;;-1.04;60.04;100073.25;678056;29;23473;-69
2021/12/28 00:20:14;;;;;;;919.97;855.88;;;;;;;-1.05;60.04;100076.00;680703;29;22392;-69
2021/12/28 00:20:37;;;;;;;956.03;889.42;;;;;;;-1.07;60.10;100070.81;678134;29;92278;-70
2021/12/28 00:21:00;;;;;;;993.03;925.15;;;;;;;-1.05;60.11;100078.66;680280;29;46330;-69
2021/12/28 00:21:23;;;;;;;964.75;897.83;;;;;;;-1.03;60.19;100082.06;678802;29;64466;-68
2021/12/28 00:21:44;;;;;;;1014.55;945.83;;;;;;;-0.98;60.13;100077.22;678970;29;69393;-73
2021/12/28 00:22:05;;;;;;;996.88;928.67;;;;;;;-0.88;59.99;100086.13;680297;29;22216;-69
2021/12/28 00:22:26;;;;;;;987.97;920.08;;;;;;;-0.90;59.80;100082.78;680575;29;21504;-72
2021/12/28 00:22:47;;;;;;;983.70;915.90;;;;;;;-0.89;59.77;100083.59;681411;29;2020;-71
2021/12/28 00:23:13;;;;;;;1042.03;972.22;;;;;;;-0.88;59.79;100088.78;680157;29;22398;-72
2021/12/28 00:23:38;;;;;;;1060.18;989.53;;;;;;;-0.89;59.67;100079.16;677734;29;113661;-69
2021/12/28 00:24:01;;;;;;;961.75;894.70;;;;;;;-0.89;59.83;100086.25;676000;29;136385;-69
2021/12/28 00:24:23;;;;;;;957.75;890.85;;;;;;;-0.90;59.84;100088.06;679086;29;68377;-71
2021/12/28 00:24:47;;;;;;;968.03;900.83;;;;;;;-0.90;59.85;100090.72;679171;28;44203;-73
2021/12/28 00:25:11;;;;;;;965.30;898.20;;;;;;;-0.90;59.71;100090.72;677903;29;92507;-69
2021/12/28 00:25:32;;;;;;;951.72;885.13;;;;;;;-0.85;59.75;100083.25;678979;29;69471;-69
2021/12/28 00:25:54;;;;;;;949.60;883.00;;;;;;;-0.83;59.49;100091.09;679873;29;44416;-69
2021/12/28 00:26:16;;;;;;;938.33;872.20;;;;;;;-0.83;59.61;100088.44;679565;28;45242;-71
2021/12/28 00:26:37;;;;;;;947.30;880.83;;;;;;;-0.88;59.66;100088.78;679728;29;45045;-69
2021/12/28 00:26:58;;;;;;;940.67;874.42;;;;;;;-0.91;59.57;100094.34;680599;29;23471;-69
2021/12/28 00:27:19;;;;;;;948.03;881.45;;;;;;;-0.96;59.71;100085.91;680747;29;22418;-70
2021/12/28 00:27:41;;;;;;;966.05;898.70;;;;;;;-1.01;59.81;100090.72;680117;28;21323;-75
2021/12/28 00:28:03;;;;;;;964.40;897.10;;;;;;;-0.99;59.84;100094.94;678606;29;44376;-69
2021/12/28 00:28:50;;;;;;;956.00;889.10;;;;;;;-1.00;59.86;100087.97;676667;29;137366;-71
2021/12/28 00:29:11;;;;;;;958.53;891.53;;;;;;;-1.00;60.04;100084.47;676282;29;88937;-69
2021/12/28 00:29:32;;;;;;;954.38;887.53;;;;;;;-1.01;60.05;100085.44;679690;29;22177;-68
2021/12/28 00:29:53;;;;;;;966.63;899.45;;;;;;;-1.01;59.99;100093.38;679770;29;23470;-70
2021/12/28 00:30:16;;;;;;;971.47;904.17;;;;;;;-1.00;59.97;100092.41;680446;29;22161;-73
2021/12/28 00:30:37;;;;;;;968.58;901.38;;;;;;;-1.00;60.06;100092.41;678809;29;67517;-70
2021/12/28 00:30:58;;;;;;;969.13;901.92;;;;;;;-1.01;60.14;100091.56;680382;29;22397;-69
2021/12/28 00:31:22;;;;;;;986.25;918.45;;;;;;;-0.99;59.97;100094.09;680272;28;21527;-69
2021/12/28 00:31:43;;;;;;;991.22;923.20;;;;;;;-0.87;59.89;100090.50;678090;29;92343;-72
2021/12/28 00:32:05;;;;;;;963.78;896.78;;;;;;;-0.85;59.87;100088.56;679570;29;45199;-71
2021/12/28 00:32:26;;;;;;;972.55;905.72;;;;;;;-0.78;59.75;100092.44;680675;29;22394;-68
2021/12/28 00:32:52;;;;;;;977.50;910.22;;;;;;;-0.80;59.51;100083.75;680610;29;21466;-69
2021/12/28 00:33:14;;;;;;;980.38;912.80;;;;;;;-0.85;59.60;100080.59;675753;29;136391;-71
2021/12/28 00:33:35;;;;;;;977.80;910.30;;;;;;;-0.83;59.60;100083.13;678662;29;67499;-70
2021/12/28 00:33:58;;;;;;;977.60;910.05;;;;;;;-0.76;59.52;100081.69;679569;29;22408;-69
2021/12/28 00:34:19;;;;;;;991.88;923.83;;;;;;;-0.78;59.35;100081.81;679962;29;45238;-69
2021/12/28 00:34:41;;;;;;;995.90;927.60;;;;;;;-0.79;59.49;100082.78;680605;29;21551;-69
2021/12/28 00:35:02;;;;;;;983.38;915.50;;;;;;;-0.78;59.46;100086.28;679603;29;46294;-70
2021/12/28 00:35:27;;;;;;;984.45;916.60;;;;;;;-0.72;59.33;100077.84;679951;29;46455;-71
2021/12/28 00:35:50;;;;;;;975.15;907.50;;;;;;;-0.71;59.33;100073.38;678496;29;92272;-69
2021/12/28 00:36:11;;;;;;;970.40;906.80;;;;;;;-0.63;59.01;100076.28;678925;29;69649;-71
2021/12/28 00:36:32;;;;;;;963.53;901.05;;;;;;;-0.61;58.72;100084.94;680068;29;22381;-69
2021/12/28 00:36:54;;;;;;;973.83;908.42;;;;;;;-0.64;58.92;100083.41;681400;29;23444;-70
2021/12/28 00:37:15;;;;;;;974.80;908.40;;;;;;;-0.63;59.07;100084.22;678378;29;46119;-70
2021/12/28 00:37:36;;;;;;;984.25;916.72;;;;;;;-0.61;58.93;100084.94;680315;29;22376;-71
2021/12/28 00:37:58;;;;;;;1009.88;941.70;;;;;;;-0.60;58.52;100083.97;679268;29;46322;-71
2021/12/28 00:38:22;;;;;;;987.17;919.88;;;;;;;-0.62;58.79;100085.94;680865;29;22175;-69
2021/12/28 00:38:43;;;;;;;971.20;904.33;;;;;;;-0.67;58.77;100088.09;677573;29;92263;-70
2021/12/28 00:39:05;;;;;;;973.28;906.08;;;;;;;-0.68;58.89;100091.72;679024;29;21326;-69
2021/12/28 00:39:27;;;;;;;973.55;906.22;;;;;;;-0.75;59.00;100088.72;679708;29;44192;-69
2021/12/28 00:39:48;;;;;;;978.65;911.25;;;;;;;-0.80;59.04;100088.19;678933;29;44512;-70
2021/12/28 00:40:10;;;;;;;986.20;918.47;;;;;;;-0.84;59.01;100095.56;680552;29;22288;-70
2021/12/28 00:40:31;;;;;;;969.38;902.28;;;;;;;-0.87;59.14;100093.16;678945;29;67384;-70
2021/12/28 00:40:55;;;;;;;967.95;900.63;;;;;;;-0.88;59.30;100098.56;680516;29;22383;-69
2021/12/28 00:41:16;;;;;;;956.13;892.60;;;;;;;-0.91;59.46;100095.19;677545;28;92256;-69
2021/12/28 00:41:37;;;;;;;950.60;888.50;;;;;;;-0.97;59.26;100089.50;680124;28;22395;-70
2021/12/28 00:41:59;;;;;;;953.45;891.92;;;;;;;-0.95;59.53;100093.75;680471;29;21604;-69
2021/12/28 00:42:20;;;;;;;962.08;899.92;;;;;;;-0.92;59.66;100092.66;679829;28;46275;-70
2021/12/28 00:42:42;;;;;;;968.72;905.47;;;;;;;-0.94;59.72;100089.25;680660;29;22373;-70
2021/12/28 00:43:03;;;;;;;967.72;904.05;;;;;;;-0.91;59.61;100084.59;680279;29;22374;-69
2021/12/28 00:43:26;;;;;;;982.35;918.55;;;;;;;-0.87;59.66;100089.66;679259;29;45186;-69
2021/12/28 00:43:47;;;;;;;983.17;917.47;;;;;;;-0.78;59.45;100078.34;679825;29;45278;-69
2021/12/28 00:44:08;;;;;;;985.90;918.67;;;;;;;-0.74;59.31;100083.28;679595;29;23287;-70
2021/12/28 00:44:29;;;;;;;993.95;926.63;;;;;;;-0.67;59.23;100080.16;680017;29;46295;-70
2021/12/28 00:44:51;;;;;;;1008.95;940.88;;;;;;;-0.64;58.96;100083.41;680772;29;22409;-70
2021/12/28 00:45:13;;;;;;;974.97;908.17;;;;;;;-0.63;59.18;100079.75;678500;29;46276;-70
2021/12/28 00:45:34;;;;;;;978.35;911.38;;;;;;;-0.60;58.88;100081.34;679811;29;46401;-69
2021/12/28 00:45:56;;;;;;;970.60;903.58;;;;;;;-0.59;58.89;100086.50;680775;29;21546;-70
2021/12/28 00:46:18;;;;;;;970.58;903.53;;;;;;;-0.60;58.74;100081.34;680515;29;22402;-70
2021/12/28 00:46:39;;;;;;;967.25;900.35;;;;;;;-0.62;58.78;100080.63;679419;29;45242;-69
2021/12/28 00:47:00;;;;;;;970.13;903.22;;;;;;;-0.60;58.63;100091.94;679189;29;23385;-69
2021/12/28 00:47:21;;;;;;;964.20;897.40;;;;;;;-0.62;58.62;100084.09;680866;29;23445;-70
2021/12/28 00:47:42;;;;;;;968.08;900.95;;;;;;;-0.64;58.74;100086.03;679542;29;44373;-70
2021/12/28 00:48:05;;;;;;;969.13;901.92;;;;;;;-0.66;58.57;100087.97;680337;29;22361;-70
2021/12/28 00:48:26;;;;;;;964.58;897.58;;;;;;;-0.63;58.75;100089.53;680377;29;17162;-69
2021/12/28 00:48:47;;;;;;;970.15;902.95;;;;;;;-0.64;58.73;100085.19;680690;29;22481;-70
2021/12/28 00:49:08;;;;;;;978.92;911.53;;;;;;;-0.68;58.92;100089.88;679922;28;21547;-69
2021/12/28 00:49:30;;;;;;;978.10;910.65;;;;;;;-0.73;58.75;100090.25;680496;29;23116;-70
2021/12/28 00:49:51;;;;;;;971.42;904.13;;;;;;;-0.77;58.85;100088.81;678899;29;45231;-70
2021/12/28 00:50:14;;;;;;;966.80;899.70;;;;;;;-0.76;58.95;100087.84;680252;29;21550;-70
2021/12/28 00:50:37;;;;;;;977.03;909.63;;;;;;;-0.73;59.09;100086.75;679057;29;70865;-69
2021/12/28 00:50:59;;;;;;;977.88;910.40;;;;;;;-0.71;59.04;100091.94;679591;29;44441;-70
2021/12/28 00:51:20;;;;;;;969.85;902.83;;;;;;;-0.77;58.98;100083.53;679231;29;69393;-69
2021/12/28 00:51:41;;;;;;;984.97;917.25;;;;;;;-0.74;59.01;100091.25;680341;29;21514;-70
2021/12/28 00:52:04;;;;;;;976.72;909.17;;;;;;;-0.72;59.03;100091.13;680176;29;22261;-69
2021/12/28 00:52:25;;;;;;;982.45;914.63;;;;;;;-0.67;58.95;100085.44;679048;29;67260;-70
2021/12/28 00:52:47;;;;;;;987.90;919.92;;;;;;;-0.63;58.74;100085.06;680249;29;22393;-69
2021/12/28 00:53:09;;;;;;;994.53;926.33;;;;;;;-0.63;58.68;100087.72;679507;29;46375;-71
2021/12/28 00:53:31;;;;;;;980.20;913.22;;;;;;;-0.69;58.86;100082.91;679958;29;46314;-71
2021/12/28 00:53:52;;;;;;;862.03;810.45;;;;;;;-0.73;58.78;100086.75;678609;29;44750;-70
2021/12/28 00:54:13;;;;;;;811.28;765.28;;;;;;;-0.77;58.84;100080.88;680354;29;22421;-70
2021/12/28 00:54:35;;;;;;;799.00;753.95;;;;;;;-0.79;58.96;100087.25;680382;29;23522;-70
2021/12/28 00:54:56;;;;;;;837.60;789.55;;;;;;;-0.82;58.98;100080.38;678980;29;45059;-69
2021/12/28 00:55:20;;;;;;;896.58;844.00;;;;;;;-0.82;59.17;100076.88;680523;29;23527;-71
2021/12/28 00:55:41;;;;;;;944.58;887.15;;;;;;;-0.84;59.26;100079.66;678090;29;91898;-69
2021/12/28 00:56:02;;;;;;;977.35;913.25;;;;;;;-0.88;59.35;100080.84;678268;29;23462;-70
2021/12/28 00:56:23;;;;;;;984.08;916.92;;;;;;;-0.87;59.58;100081.72;680546;29;22367;-69
2021/12/28 00:56:45;;;;;;;981.03;915.88;;;;;;;-0.94;59.41;100074.22;677653;29;21597;-69
2021/12/28 00:57:06;;;;;;;975.20;911.50;;;;;;;-0.94;59.42;100079.53;675614;29;46292;-69
2021/12/28 00:57:27;;;;;;;965.10;901.67;;;;;;;-0.94;59.44;100074.22;677057;29;23586;-70
2021/12/28 00:57:49;;;;;;;928.78;868.22;;;;;;;-0.92;59.53;100071.47;677628;29;22259;-70
2021/12/28 00:58:11;;;;;;;922.83;863.78;;;;;;;-0.88;59.52;100074.69;677664;29;22427;-70
2021/12/28 00:58:33;;;;;;;967.75;904.85;;;;;;;-0.86;59.42;100076.28;677361;29;44340;-70
2021/12/28 00:58:54;;;;;;;975.55;912.85;;;;;;;-0.91;59.55;100074.00;679089;29;44353;-70
2021/12/28 00:59:15;;;;;;;998.45;935.95;;;;;;;-0.93;59.56;100072.41;680425;29;21555;-69
2021/12/28 00:59:36;;;;;;;1002.58;940.75;;;;;;;-0.94;59.60;100066.28;680349;29;22372;-70
2021/12/28 00:59:58;;;;;;;984.72;922.72;;;;;;;-0.93;59.53;100069.75;680048;29;21508;-69
2021/12/28 01:00:22;;;;;;;986.67;922.83;;;;;;;-0.92;59.68;100072.28;679841;29;46298;-69
2021/12/28 01:00:44;;;;;;;993.13;925.72;;;;;;;-0.85;59.55;100067.34;678540;29;92293;-69
2021/12/28 01:01:06;;;;;;;991.00;923.42;;;;;;;-0.86;59.56;100070.13;679950;29;43576;-69
2021/12/28 01:01:27;;;;;;;1002.58;934.13;;;;;;;-0.86;59.65;100067.47;678339;29;69241;-70
2021/12/28 01:01:48;;;;;;;985.83;917.88;;;;;;;-0.88;59.57;100070.22;680366;29;23478;-70
2021/12/28 01:02:10;;;;;;;972.85;905.42;;;;;;;-0.85;59.44;100064.69;680812;29;22377;-70
2021/12/28 01:02:31;;;;;;;950.17;885.03;;;;;;;-0.82;59.43;100067.09;681338;29;4599;-69
2021/12/28 01:02:53;;;;;;;926.58;864.05;;;;;;;-0.79;59.31;100072.16;680753;29;22387;-70
2021/12/28 01:03:16;;;;;;;788.10;743.58;;;;;;;-0.79;59.19;100066.88;678562;29;67496;-70
2021/12/28 01:03:38;;;;;;;875.58;824.65;;;;;;;-0.81;59.51;100065.31;679423;29;46333;-70
2021/12/28 01:04:00;;;;;;;912.35;856.53;;;;;;;-0.79;59.20;100064.22;678831;28;46298;-69
2021/12/28 01:04:21;;;;;;;939.33;877.35;;;;;;;-0.78;59.15;100071.22;679926;29;44397;-69
2021/12/28 01:04:42;;;;;;;894.13;838.97;;;;;;;-0.82;59.32;100071.56;680676;29;22368;-69
2021/12/28 01:05:04;;;;;;;866.03;815.90;;;;;;;-0.84;59.22;100066.38;680244;29;22357;-69
2021/12/28 01:05:27;;;;;;;888.15;836.28;;;;;;;-0.87;59.21;100069.28;679854;29;45194;-69
2021/12/28 01:05:50;;;;;;;921.53;865.90;;;;;;;-0.91;59.29;100058.09;678253;29;92336;-70
2021/12/28 01:06:11;;;;;;;945.85;887.75;;;;;;;-0.87;59.28;100063.97;678327;29;44394;-69
2021/12/28 01:06:32;;;;;;;953.42;892.33;;;;;;;-0.94;59.38;100058.31;680101;29;22386;-70
2021/12/28 01:06:54;;;;;;;974.92;909.53;;;;;;;-0.92;59.23;100055.56;679514;29;44367;-69
2021/12/28 01:07:15;;;;;;;966.65;902.92;;;;;;;-0.91;59.47;100059.88;679669;29;46296;-70
2021/12/28 01:07:37;;;;;;;991.58;923.60;;;;;;;-0.88;59.41;100054.31;680065;29;22389;-69
2021/12/28 01:07:58;;;;;;;994.88;926.30;;;;;;;-0.87;59.35;100057.84;680407;29;22203;-71
2021/12/28 01:08:20;;;;;;;985.55;919.45;;;;;;;-0.88;59.40;100062.28;680219;29;22196;-70
2021/12/28 01:08:41;;;;;;;910.72;857.25;;;;;;;-0.81;59.45;100062.66;677051;29;47229;-69
2021/12/28 01:09:02;;;;;;;981.75;919.92;;;;;;;-0.76;59.26;100056.03;676137;29;45297;-69
2021/12/28 01:09:29;;;;;;;899.63;844.22;;;;;;;-0.80;59.23;100059.03;677823;29;22393;-69
2021/12/28 01:09:52;;;;;;;795.53;751.03;;;;;;;-0.80;59.35;100059.03;673516;29;138157;-70
2021/12/28 01:10:15;;;;;;;873.30;823.38;;;;;;;-0.70;59.07;100054.69;676090;29;69441;-69
2021/12/28 01:10:38;;;;;;;948.92;890.42;;;;;;;-0.63;58.86;100058.53;677693;29;69248;-70
2021/12/28 01:11:02;;;;;;;965.70;901.88;;;;;;;-0.65;58.75;100070.25;679456;28;69400;-69
2021/12/28 01:11:24;;;;;;;952.17;886.78;;;;;;;-0.62;58.71;100064.72;679068;29;69317;-70
2021/12/28 01:11:45;;;;;;;935.05;875.10;;;;;;;-0.52;58.50;100067.47;679335;29;46350;-70
2021/12/28 01:12:07;;;;;;;972.10;905.10;;;;;;;-0.48;58.22;100059.13;680689;29;21274;-69
2021/12/28 01:12:28;;;;;;;966.35;900.70;;;;;;;-0.51;58.23;100061.22;678975;29;69405;-70
2021/12/28 01:12:52;;;;;;;911.97;855.10;;;;;;;-0.53;58.13;100056.03;680654;29;22376;-70
2021/12/28 01:13:14;;;;;;;932.30;873.83;;;;;;;-0.53;58.32;100057.81;677746;29;92108;-69
2021/12/28 01:13:35;;;;;;;953.05;892.05;;;;;;;-0.58;58.38;100068.78;679248;28;21542;-70
2021/12/28 01:13:56;;;;;;;964.05;901.38;;;;;;;-0.66;58.46;100060.59;678136;29;23328;-69
2021/12/28 01:14:18;;;;;;;977.78;911.55;;;;;;;-0.68;58.44;100062.53;678860;29;22234;-70
2021/12/28 01:14:39;;;;;;;985.30;917.70;;;;;;;-0.71;58.59;100065.44;677722;29;46277;-70
2021/12/28 01:15:00;;;;;;;984.13;916.63;;;;;;;-0.71;58.75;100063.63;677610;29;44140;-69
2021/12/28 01:15:22;;;;;;;990.60;922.85;;;;;;;-0.73;58.74;100068.22;678705;29;22390;-69
2021/12/28 01:15:45;;;;;;;993.72;925.78;;;;;;;-0.77;58.75;100058.78;679804;29;45369;-69
2021/12/28 01:16:06;;;;;;;983.42;915.72;;;;;;;-0.73;58.79;100058.44;678799;29;69414;-69
2021/12/28 01:16:27;;;;;;;977.63;910.05;;;;;;;-0.69;58.71;100052.88;680750;29;22386;-70
2021/12/28 01:16:48;;;;;;;978.17;910.67;;;;;;;-0.66;58.64;100052.66;679710;29;19819;-69
2021/12/28 01:17:09;;;;;;;980.30;913.13;;;;;;;-0.65;58.64;100054.34;680398;29;22397;-71
2021/12/28 01:17:31;;;;;;;998.55;930.53;;;;;;;-0.70;58.55;100054.69;680117;29;21363;-69
2021/12/28 01:17:53;;;;;;;995.17;926.97;;;;;;;-0.73;58.61;100060.25;679124;29;44684;-70
2021/12/28 01:18:14;;;;;;;976.67;909.85;;;;;;;-0.67;58.67;100054.47;679953;29;22402;-70
2021/12/28 01:18:36;;;;;;;973.28;906.38;;;;;;;-0.64;58.62;100061.31;679626;29;46297;-69
2021/12/28 01:18:57;;;;;;;977.53;910.08;;;;;;;-0.67;58.57;100061.59;678406;29;45253;-70
2021/12/28 01:19:18;;;;;;;978.40;911.00;;;;;;;-0.68;58.61;100057.22;680396;29;21537;-69
2021/12/28 01:19:39;;;;;;;976.58;909.22;;;;;;;-0.69;58.67;100060.84;677794;29;23458;-70
2021/12/28 01:20:00;;;;;;;996.08;928.05;;;;;;;-0.74;58.64;100059.41;677093;29;19487;-69
2021/12/28 01:20:23;;;;;;;979.17;911.58;;;;;;;-0.73;58.79;100063.72;677886;29;21578;-69
2021/12/28 01:20:44;;;;;;;972.63;905.22;;;;;;;-0.78;58.73;100052.66;676389;29;69435;-69
2021/12/28 01:21:07;;;;;;;976.08;908.63;;;;;;;-0.72;58.58;100059.28;677572;29;22396;-70
2021/12/28 01:21:29;;;;;;;978.72;911.22;;;;;;;-0.75;58.79;100059.53;676509;29;69424;-70
2021/12/28 01:21:50;;;;;;;987.65;919.80;;;;;;;-0.78;58.65;100062.44;679540;29;46316;-70
2021/12/28 01:22:11;;;;;;;986.20;918.30;;;;;;;-0.78;58.70;100068.56;680241;29;21368;-69
2021/12/28 01:22:32;;;;;;;981.03;913.35;;;;;;;-0.74;58.69;100062.06;680513;29;19579;-69
2021/12/28 01:22:54;;;;;;;982.35;914.70;;;;;;;-0.69;58.80;100058.19;680450;29;23405;-71
2021/12/28 01:23:16;;;;;;;983.72;916.13;;;;;;;-0.73;58.72;100061.09;679248;29;44368;-70
2021/12/28 01:23:47;;;;;;;969.10;901.80;;;;;;;-0.79;58.66;100063.38;678068;29;96894;-70
2021/12/28 01:24:08;;;;;;;972.22;905.20;;;;;;;-0.81;58.87;100068.81;679672;28;22359;-70
2021/12/28 01:24:29;;;;;;;981.30;914.10;;;;;;;-0.81;59.01;100074.09;680623;29;21557;-70
2021/12/28 01:24:51;;;;;;;979.45;912.25;;;;;;;-0.80;59.02;100064.34;680289;29;21485;-69
2021/12/28 01:25:14;;;;;;;976.53;909.42;;;;;;;-0.79;58.90;100072.16;679548;29;46277;-69
2021/12/28 01:25:35;;;;;;;971.42;904.25;;;;;;;-0.79;58.85;100074.81;678958;29;69370;-70
2021/12/28 01:25:57;;;;;;;982.40;915.25;;;;;;;-0.81;58.98;100068.81;680474;29;22258;-69
2021/12/28 01:26:18;;;;;;;979.80;913.17;;;;;;;-0.78;58.96;100067.72;679495;29;45220;-70
2021/12/28 01:26:39;;;;;;;978.40;912.25;;;;;;;-0.78;58.94;100071.22;680461;28;20858;-70
2021/12/28 01:27:01;;;;;;;1000.75;934.40;;;;;;;-0.78;58.89;100071.22;680621;29;22359;-69
2021/12/28 01:27:22;;;;;;;956.92;894.83;;;;;;;-0.78;59.02;100070.38;679621;29;44484;-69
2021/12/28 01:27:44;;;;;;;979.17;913.33;;;;;;;-0.81;58.94;100071.44;679766;29;22393;-70
2021/12/28 01:28:06;;;;;;;999.08;932.33;;;;;;;-0.83;58.97;100069.88;679619;29;45246;-69
2021/12/28 01:28:27;;;;;;;1040.22;971.85;;;;;;;-0.83;59.02;100070.75;679948;29;48202;-70
2021/12/28 01:28:48;;;;;;;1031.35;963.42;;;;;;;-0.86;59.02;100064.81;679685;28;44287;-69
2021/12/28 01:29:09;;;;;;;1002.15;934.35;;;;;;;-0.91;59.07;100068.69;679554;29;22150;-69
2021/12/28 01:29:32;;;;;;;999.55;931.40;;;;;;;-0.93;59.24;100070.59;680411;29;22423;-69
2021/12/28 01:29:54;;;;;;;986.10;918.30;;;;;;;-0.96;59.19;100062.03;678569;29;67502;-70
2021/12/28 01:30:17;;;;;;;911.50;849.67;;;;;;;-0.97;59.28;100071.81;680324;29;22570;-69
2021/12/28 01:30:40;;;;;;;982.55;915.17;;;;;;;-0.98;59.23;100070.13;678148;29;92068;-69
2021/12/28 01:31:01;;;;;;;991.50;923.65;;;;;;;-1.00;59.21;100072.06;678317;29;46337;-70
2021/12/28 01:31:22;;;;;;;989.22;921.13;;;;;;;-1.05;59.37;100068.06;679117;29;45235;-69
2021/12/28 01:31:43;;;;;;;985.90;917.92;;;;;;;-1.06;59.54;100066.38;680019;29;23433;-70
2021/12/28 01:32:08;;;;;;;985.38;917.47;;;;;;;-1.06;59.66;100069.88;680573;29;22162;-70
2021/12/28 01:32:29;;;;;;;981.70;913.97;;;;;;;-1.05;59.45;100060.09;677570;29;91411;-70
2021/12/28 01:32:51;;;;;;;977.67;910.00;;;;;;;-1.03;59.70;100066.16;680259;29;23462;-70
2021/12/28 01:33:13;;;;;;;987.83;919.80;;;;;;;-1.04;59.66;100062.63;679254;29;47174;-69
2021/12/28 01:33:35;;;;;;;991.55;923.25;;;;;;;-1.10;59.64;100056.03;678009;29;67490;-69
2021/12/28 01:33:56;;;;;;;989.30;921.20;;;;;;;-1.11;59.77;100056.97;679090;28;23351;-69
2021/12/28 01:34:18;;;;;;;989.75;921.65;;;;;;;-1.13;59.83;100060.69;680333;29;21542;-70
2021/12/28 01:34:39;;;;;;;987.42;919.45;;;;;;;-1.18;60.02;100057.56;679779;29;46365;-69
2021/12/28 01:35:01;;;;;;;994.97;926.95;;;;;;;-1.19;59.97;100051.44;680100;29;22392;-69
2021/12/28 01:35:22;;;;;;;998.47;930.08;;;;;;;-1.15;60.02;100066.13;680305;29;1515;-69
2021/12/28 01:35:43;;;;;;;994.03;925.67;;;;;;;-1.14;59.95;100061.69;680519;29;21529;-69
2021/12/28 01:36:04;;;;;;;915.83;856.05;;;;;;;-1.13;59.96;100071.28;680448;29;23983;-70
2021/12/28 01:36:28;;;;;;;889.17;836.33;;;;;;;-1.13;59.94;100064.22;680613;29;22419;-69
2021/12/28 01:36:49;;;;;;;933.10;873.92;;;;;;;-1.13;60.07;100064.22;677908;29;92249;-70
2021/12/28 01:37:11;;;;;;;902.88;850.13;;;;;;;-1.13;60.13;100052.75;679234;29;22399;-70
2021/12/28 01:37:32;;;;;;;979.60;920.47;;;;;;;-1.12;60.05;100052.63;680364;29;18464;-70
2021/12/28 01:37:53;;;;;;;1025.60;959.00;;;;;;;-1.12;59.98;100057.94;679258;29;45219;-70
2021/12/28 01:38:15;;;;;;;943.88;886.22;;;;;;;-1.12;60.00;100049.16;680833;28;22382;-70
2021/12/28 01:38:36;;;;;;;1007.92;946.80;;;;;;;-1.13;60.11;100058.91;679019;29;46375;-69
2021/12/28 01:38:58;;;;;;;1022.78;960.88;;;;;;;-1.12;59.99;100049.97;679324;29;22389;-70
2021/12/28 01:39:19;;;;;;;815.03;765.88;;;;;;;-1.12;60.13;100043.84;681351;29;1135;-69
2021/12/28 01:39:41;;;;;;;352.52;333.63;;;;;;;-1.12;60.11;100047.31;680662;29;13095;-69
2021/12/28 01:40:04;;;;;;;765.35;717.25;;;;;;;-1.10;59.99;100047.22;677925;29;46369;-69
2021/12/28 01:40:27;;;;;;;745.03;701.03;;;;;;;-1.10;59.99;100044.56;681053;29;11995;-69
2021/12/28 01:40:49;;;;;;;592.65;559.28;;;;;;;-1.11;60.05;100045.53;675323;29;92091;-70